Zdamen — CRA6504 — position and weather

sailwx.info

Track history (hours):
 
Tides and Currents Weather Stations Pressure Air Temp Water Temp Dewpoint Dewpoint Depression Visibility Wind Speed Wind Dir Waves Ship Positions

Zdamen

Last reported at 2017-Aug-20 15:44 UTC. Time now 2017-Sep-24 05:13 UTC.
Position N 38°41' W 009°12'.
Warning: this ship's position is 34 days out of date.

Length 12 m.

Type: Sailing vessel. MMSI: 263951470.

Date/timePositionNaut miles runAvg speedWind from/ knotsBaromVisibWave heightAir tempDewpointWater temp
2017-Aug-20 15:44N 38°41' W 009°12'2 4.5
2017-Aug-20 15:21N 38°41' W 009°15'2 6.0
2017-Aug-20 14:57N 38°41' W 009°18'34 6.0
2017-Aug-20 09:20N 38°08' W 009°04'2 6.2
2017-Aug-20 09:00N 38°07' W 009°02'3 6.1
2017-Aug-20 08:30N 38°04' W 009°00'3 6.1
2017-Aug-20 08:00N 38°02' W 008°58'3 6.2
2017-Aug-20 07:30N 37°59' W 008°56'3 6.4
2017-Aug-20 07:00N 37°56' W 008°54'2 0.1
2017-Aug-19 19:56N 37°57' W 008°52'1 2.1
2017-Aug-19 19:30N 37°56' W 008°52'  
Track history (hours):
 
Tides and Currents Weather Stations Pressure Air Temp Water Temp Dewpoint Dewpoint Depression Visibility Wind Speed Wind Dir Waves Ship Positions

Zdamen

Last reported at 2017-Aug-20 15:44 UTC. Time now 2017-Sep-24 05:13 UTC.
Position N 38°41' W 009°12'.
Warning: this ship's position is 34 days out of date.

Length 12 m.

Type: Sailing vessel. MMSI: 263951470.

Date/timePositionNaut miles runAvg speedWind from/ knotsBaromVisibWave heightAir tempDewpointWater temp
2017-Aug-20 15:44N 38°41' W 009°12'2 4.5
2017-Aug-20 15:21N 38°41' W 009°15'2 6.0
2017-Aug-20 14:57N 38°41' W 009°18'34 6.0
2017-Aug-20 09:20N 38°08' W 009°04'2 6.2
2017-Aug-20 09:00N 38°07' W 009°02'3 6.1
2017-Aug-20 08:30N 38°04' W 009°00'3 6.1
2017-Aug-20 08:00N 38°02' W 008°58'3 6.2
2017-Aug-20 07:30N 37°59' W 008°56'3 6.4
2017-Aug-20 07:00N 37°56' W 008°54'2 0.1
2017-Aug-19 19:56N 37°57' W 008°52'1 2.1
2017-Aug-19 19:30N 37°56' W 008°52'  

Dump ship's entire track history